Lions Gate Bridge — H9LV — position and weather

sailwx.info

Track history (hours):
 
Tides and Currents Weather Stations Pressure Air Temp Water Temp Dewpoint Dewpoint Depression Visibility Wind Speed Wind Dir Waves Ship Positions

Lions Gate Bridge

Last reported at 2014-Nov-21 23:12 UTC. Time now 2014-Nov-24 21:01 UTC.
Position N 34°52' E 139°43'.

Length 284.7 m; beam 40 m.

Type: Cargo ship. MMSI: 351086000.

Date/timePositionNaut miles runAvg speedWind from/ knotsBaromVisibWave heightAir tempDewpointWater temp
2014-Nov-21 23:12N 34°52' E 139°43'1319.3
2014-Nov-21 22:31N 35°05' E 139°44'6 6.0
2014-Nov-21 21:32N 35°10' E 139°45'9 8.8
2014-Nov-21 20:33N 35°19' E 139°43'1414.4
2014-Nov-21 19:33N 35°32' E 139°51'6 2.1
2014-Nov-21 16:29N 35°37' E 139°46'0 0.0
2014-Nov-21 15:23N 35°37' E 139°46'0 0.0
2014-Nov-21 14:26N 35°37' E 139°46'0 0.0
2014-Nov-21 05:20N 35°37' E 139°46'0 0.0
2014-Nov-21 04:08N 35°37' E 139°46'2 0.5
2014-Nov-21 00:32N 35°35' E 139°47'1010.4
2014-Nov-20 23:33N 35°25' E 139°48'1111.5
2014-Nov-20 22:33N 35°14' E 139°47'1110.8
2014-Nov-20 21:33N 35°04' E 139°43'  
2014-Nov-17 09:03N 24°36' E 119°23'918.8
2014-Nov-17 08:33N 24°31' E 119°14'2019.6
2014-Nov-17 07:33N 24°18' E 118°57'2619.9
2014-Nov-17 06:16N 24°04' E 118°34'1520.3
2014-Nov-17 05:33N 23°55' E 118°21'2020.1
2014-Nov-17 04:33N 23°43' E 118°04'2019.9
2014-Nov-17 03:33N 23°31' E 117°47'4020.0
2014-Nov-17 01:32N 23°05' E 117°13'2020.7
2014-Nov-17 00:33N 22°53' E 116°55'14818.5
2014-Nov-16 16:32N 22°34' E 114°16'0 0.1
2014-Nov-16 15:21N 22°34' E 114°15'0 0.0
2014-Nov-16 14:29N 22°34' E 114°15'0 0.0
2014-Nov-16 13:32N 22°34' E 114°15'0 0.0
2014-Nov-16 12:33N 22°34' E 114°15'0 0.0
2014-Nov-16 11:27N 22°34' E 114°15'0 0.0
2014-Nov-16 10:33N 22°34' E 114°15'0 0.0
2014-Nov-16 09:33N 22°34' E 114°15'0 0.0
2014-Nov-16 08:15N 22°34' E 114°15'0 0.0
2014-Nov-16 07:27N 22°34' E 114°15'0 0.0
2014-Nov-16 06:33N 22°34' E 114°15'0 0.0
2014-Nov-16 05:33N 22°34' E 114°15'0 0.0
2014-Nov-16 04:33N 22°34' E 114°15'0 0.0
2014-Nov-16 03:27N 22°34' E 114°15'0 0.0
2014-Nov-16 02:27N 22°34' E 114°15'0 0.0
2014-Nov-16 01:15N 22°34' E 114°15'0 0.0
2014-Nov-16 00:33N 22°34' E 114°15'0 0.0
2014-Nov-15 23:15N 22°34' E 114°15'0 0.1
2014-Nov-15 22:33N 22°34' E 114°16'16 3.3
2014-Nov-15 17:33N 22°20' E 114°07'0 0.2
2014-Nov-15 16:26N 22°20' E 114°08'0 0.0
2014-Nov-15 15:26N 22°20' E 114°08'0 0.0
2014-Nov-15 14:32N 22°20' E 114°08'0 0.0
2014-Nov-15 13:20N 22°20' E 114°08'0 0.0
2014-Nov-15 12:26N 22°20' E 114°08'0 0.0
2014-Nov-15 10:20N 22°20' E 114°08'0 0.0
2014-Nov-15 09:32N 22°20' E 114°08'0 0.0
2014-Nov-15 06:26N 22°20' E 114°08'0 0.0
2014-Nov-15 00:14N 22°20' E 114°08'1 0.2
2014-Nov-14 17:33N 22°19' E 114°06'1110.6
2014-Nov-14 16:32N 22°10' E 114°13'21717.7
2014-Nov-14 04:17N 23°34' E 117°50'1621.5
2014-Nov-14 03:32N 23°44' E 118°04'2121.5
2014-Nov-14 02:33N 23°60' E 118°19'1817.7
2014-Nov-14 01:33N 24°17' E 118°13'1312.9
2014-Nov-14 00:33N 24°26' E 118°03'2 2.1
2014-Nov-13 23:33N 24°27' E 118°01'0 0.0
2014-Nov-13 22:27N 24°27' E 118°01'0 0.1
2014-Nov-13 21:21N 24°27' E 118°01'0 0.0
2014-Nov-13 20:15N 24°27' E 118°01'0 0.0
2014-Nov-13 19:27N 24°27' E 118°01'0 0.1
2014-Nov-13 18:27N 24°27' E 118°01'0 0.0
2014-Nov-13 17:21N 24°27' E 118°01'0 0.0
2014-Nov-13 15:09N 24°27' E 118°01'0 0.0
2014-Nov-13 09:15N 24°27' E 118°01'0 0.0
2014-Nov-13 08:27N 24°27' E 118°01'0 0.1
2014-Nov-13 07:27N 24°27' E 118°01'0 0.0
2014-Nov-13 06:33N 24°27' E 118°01'0 0.1
2014-Nov-13 05:33N 24°27' E 118°01'0 0.0
2014-Nov-13 04:27N 24°27' E 118°01'0 0.0
2014-Nov-13 03:15N 24°27' E 118°01'0 0.0
2014-Nov-13 02:33N 24°27' E 118°01'1 1.2
2014-Nov-13 01:33N 24°26' E 118°02'1010.0
2014-Nov-13 00:33N 24°20' E 118°10'9 9.0
2014-Nov-12 23:33N 24°15' E 118°19'4 3.0
2014-Nov-12 22:07N 24°15' E 118°23'0 0.1
2014-Nov-12 21:31N 24°15' E 118°23'0 0.0
2014-Nov-12 20:31N 24°15' E 118°23'0 0.0
2014-Nov-12 19:19N 24°15' E 118°23'0 0.1
2014-Nov-12 18:31N 24°15' E 118°23'0 0.0
2014-Nov-12 17:25N 24°15' E 118°23'0 0.1
2014-Nov-12 16:25N 24°15' E 118°23'0 0.0
2014-Nov-12 15:31N 24°15' E 118°23'0 0.0
2014-Nov-12 14:31N 24°15' E 118°23'0 0.0
2014-Nov-12 12:25N 24°15' E 118°23'0 0.1
2014-Nov-12 11:13N 24°15' E 118°23'0 0.0
2014-Nov-12 10:19N 24°15' E 118°23'0 0.0
2014-Nov-12 09:25N 24°15' E 118°23'0 0.1
2014-Nov-12 08:31N 24°15' E 118°23'0 0.1
2014-Nov-12 07:31N 24°15' E 118°23'0 0.0
2014-Nov-12 06:25N 24°15' E 118°23'0 0.0
2014-Nov-12 05:31N 24°15' E 118°23'0 0.0
2014-Nov-12 04:19N 24°15' E 118°23'0 0.0
2014-Nov-12 03:31N 24°15' E 118°23'0 0.0
2014-Nov-12 02:31N 24°15' E 118°23'0 0.1
2014-Nov-12 01:25N 24°15' E 118°23'0 0.0
2014-Nov-12 00:13N 24°15' E 118°23'  
Track history (hours):
 
Tides and Currents Weather Stations Pressure Air Temp Water Temp Dewpoint Dewpoint Depression Visibility Wind Speed Wind Dir Waves Ship Positions

Lions Gate Bridge

Last reported at 2014-Nov-21 23:12 UTC. Time now 2014-Nov-24 21:01 UTC.
Position N 34°52' E 139°43'.

Length 284.7 m; beam 40 m.

Type: Cargo ship. MMSI: 351086000.

Date/timePositionNaut miles runAvg speedWind from/ knotsBaromVisibWave heightAir tempDewpointWater temp
2014-Nov-21 23:12N 34°52' E 139°43'1319.3
2014-Nov-21 22:31N 35°05' E 139°44'6 6.0
2014-Nov-21 21:32N 35°10' E 139°45'9 8.8
2014-Nov-21 20:33N 35°19' E 139°43'1414.4
2014-Nov-21 19:33N 35°32' E 139°51'6 2.1
2014-Nov-21 16:29N 35°37' E 139°46'0 0.0
2014-Nov-21 15:23N 35°37' E 139°46'0 0.0
2014-Nov-21 14:26N 35°37' E 139°46'0 0.0
2014-Nov-21 05:20N 35°37' E 139°46'0 0.0
2014-Nov-21 04:08N 35°37' E 139°46'2 0.5
2014-Nov-21 00:32N 35°35' E 139°47'1010.4
2014-Nov-20 23:33N 35°25' E 139°48'1111.5
2014-Nov-20 22:33N 35°14' E 139°47'1110.8
2014-Nov-20 21:33N 35°04' E 139°43'  
2014-Nov-17 09:03N 24°36' E 119°23'918.8
2014-Nov-17 08:33N 24°31' E 119°14'2019.6
2014-Nov-17 07:33N 24°18' E 118°57'2619.9
2014-Nov-17 06:16N 24°04' E 118°34'1520.3
2014-Nov-17 05:33N 23°55' E 118°21'2020.1
2014-Nov-17 04:33N 23°43' E 118°04'2019.9
2014-Nov-17 03:33N 23°31' E 117°47'4020.0
2014-Nov-17 01:32N 23°05' E 117°13'2020.7
2014-Nov-17 00:33N 22°53' E 116°55'14818.5
2014-Nov-16 16:32N 22°34' E 114°16'0 0.1
2014-Nov-16 15:21N 22°34' E 114°15'0 0.0
2014-Nov-16 14:29N 22°34' E 114°15'0 0.0
2014-Nov-16 13:32N 22°34' E 114°15'0 0.0
2014-Nov-16 12:33N 22°34' E 114°15'0 0.0
2014-Nov-16 11:27N 22°34' E 114°15'0 0.0
2014-Nov-16 10:33N 22°34' E 114°15'0 0.0
2014-Nov-16 09:33N 22°34' E 114°15'0 0.0
2014-Nov-16 08:15N 22°34' E 114°15'0 0.0
2014-Nov-16 07:27N 22°34' E 114°15'0 0.0
2014-Nov-16 06:33N 22°34' E 114°15'0 0.0
2014-Nov-16 05:33N 22°34' E 114°15'0 0.0
2014-Nov-16 04:33N 22°34' E 114°15'0 0.0
2014-Nov-16 03:27N 22°34' E 114°15'0 0.0
2014-Nov-16 02:27N 22°34' E 114°15'0 0.0
2014-Nov-16 01:15N 22°34' E 114°15'0 0.0
2014-Nov-16 00:33N 22°34' E 114°15'0 0.0
2014-Nov-15 23:15N 22°34' E 114°15'0 0.1
2014-Nov-15 22:33N 22°34' E 114°16'16 3.3
2014-Nov-15 17:33N 22°20' E 114°07'0 0.2
2014-Nov-15 16:26N 22°20' E 114°08'0 0.0
2014-Nov-15 15:26N 22°20' E 114°08'0 0.0
2014-Nov-15 14:32N 22°20' E 114°08'0 0.0
2014-Nov-15 13:20N 22°20' E 114°08'0 0.0
2014-Nov-15 12:26N 22°20' E 114°08'0 0.0
2014-Nov-15 10:20N 22°20' E 114°08'0 0.0
2014-Nov-15 09:32N 22°20' E 114°08'0 0.0
2014-Nov-15 06:26N 22°20' E 114°08'0 0.0
2014-Nov-15 00:14N 22°20' E 114°08'1 0.2
2014-Nov-14 17:33N 22°19' E 114°06'1110.6
2014-Nov-14 16:32N 22°10' E 114°13'21717.7
2014-Nov-14 04:17N 23°34' E 117°50'1621.5
2014-Nov-14 03:32N 23°44' E 118°04'2121.5
2014-Nov-14 02:33N 23°60' E 118°19'1817.7
2014-Nov-14 01:33N 24°17' E 118°13'1312.9
2014-Nov-14 00:33N 24°26' E 118°03'2 2.1
2014-Nov-13 23:33N 24°27' E 118°01'0 0.0
2014-Nov-13 22:27N 24°27' E 118°01'0 0.1
2014-Nov-13 21:21N 24°27' E 118°01'0 0.0
2014-Nov-13 20:15N 24°27' E 118°01'0 0.0
2014-Nov-13 19:27N 24°27' E 118°01'0 0.1
2014-Nov-13 18:27N 24°27' E 118°01'0 0.0
2014-Nov-13 17:21N 24°27' E 118°01'0 0.0
2014-Nov-13 15:09N 24°27' E 118°01'0 0.0
2014-Nov-13 09:15N 24°27' E 118°01'0 0.0
2014-Nov-13 08:27N 24°27' E 118°01'0 0.1
2014-Nov-13 07:27N 24°27' E 118°01'0 0.0
2014-Nov-13 06:33N 24°27' E 118°01'0 0.1
2014-Nov-13 05:33N 24°27' E 118°01'0 0.0
2014-Nov-13 04:27N 24°27' E 118°01'0 0.0
2014-Nov-13 03:15N 24°27' E 118°01'0 0.0
2014-Nov-13 02:33N 24°27' E 118°01'1 1.2
2014-Nov-13 01:33N 24°26' E 118°02'1010.0
2014-Nov-13 00:33N 24°20' E 118°10'9 9.0
2014-Nov-12 23:33N 24°15' E 118°19'4 3.0
2014-Nov-12 22:07N 24°15' E 118°23'0 0.1
2014-Nov-12 21:31N 24°15' E 118°23'0 0.0
2014-Nov-12 20:31N 24°15' E 118°23'0 0.0
2014-Nov-12 19:19N 24°15' E 118°23'0 0.1
2014-Nov-12 18:31N 24°15' E 118°23'0 0.0
2014-Nov-12 17:25N 24°15' E 118°23'0 0.1
2014-Nov-12 16:25N 24°15' E 118°23'0 0.0
2014-Nov-12 15:31N 24°15' E 118°23'0 0.0
2014-Nov-12 14:31N 24°15' E 118°23'0 0.0
2014-Nov-12 12:25N 24°15' E 118°23'0 0.1
2014-Nov-12 11:13N 24°15' E 118°23'0 0.0
2014-Nov-12 10:19N 24°15' E 118°23'0 0.0
2014-Nov-12 09:25N 24°15' E 118°23'0 0.1
2014-Nov-12 08:31N 24°15' E 118°23'0 0.1
2014-Nov-12 07:31N 24°15' E 118°23'0 0.0
2014-Nov-12 06:25N 24°15' E 118°23'0 0.0
2014-Nov-12 05:31N 24°15' E 118°23'0 0.0
2014-Nov-12 04:19N 24°15' E 118°23'0 0.0
2014-Nov-12 03:31N 24°15' E 118°23'0 0.0
2014-Nov-12 02:31N 24°15' E 118°23'0 0.1
2014-Nov-12 01:25N 24°15' E 118°23'0 0.0
2014-Nov-12 00:13N 24°15' E 118°23'  

Dump ship's entire track history